Portada
METAR-TAF:

METAR-TAF

Aeroports :

Xiraz, Iran

latitud: 29-32N, longitud: 052-35E, altitud: 1486 m

Observació

L'informe es va fer fa 24 minuts, a les 16:00 UTC
Vent 4 kt del Oest
Temperatura 34°C
Humitat 13%
Pressió 1008 hPa
Visibilitat: 8000 m

METAR: OISS 171600Z 28004KT 8000 NSC 34/02 Q1007 A2976

Hora: 20:54 (16:24 UTC)

Pronòstic

L'informe es va fer fa 5 hores i 14 minuts, a les 11:10 UTC
Pronòstic vàlid del 17 a les 12 UTC al 18 a les 18 UTC
Vent 8 kt del Sud-Est
Visibilitat: 8000 m
Escasses núvols a una alçada de 4000 ft
Temporalment
l' 17 a les 12 UTC al 17 a les 16 UTC
Vent 16 kt del Oest/Nord-Oest
Escasses núvols a una alçada de 3500 ft, Cumulonimbus.
Núvols disperses a una alçada de 4000 ft
Núvols disperses a una alçada de 10000 ft

TAF: OISS 171110Z 1712/1818 13008KT 8000 FEW040 TEMPO 1712/1716 30016KT FEW035CB SCT040 SCT100

Observacions i pronòstics meteorològics de més de 4000 aeroports (METAR i TAF).

Les estacions disponibles són els punts grocs i vermells al mapa.

Posi el ratolí al punt desitjat per veure el nom de l'estació.

Feu clic per veure les observacions i els pronòstics meteorològics.

Per canviar el mapa: feu clic els botons verds amb una creu de color negre per apropar; al botó verd amb un guió per allunyar la imatge; o en les fletxes verdes per a mapes adjacents.


METAR-TAF: